Time;durP1;ratioP1;P1;durP2;ratioP2;P2;SDS_P1;SDS_P2;PMS_P1;PMS_P2;Temp;Humidity;BMP_temperature;BMP_pressure;BME280_temperature;BME280_humidity;BME280_pressure;Samples;Min_cycle;Max_cycle;Signal;HPM_P1;HPM_P2
2021/09/06 00:00:09;;;;;;;22.37;14.10;;;15.30;99.90;;;;;;5055032;28;20562;-64
2021/09/06 00:02:38;;;;;;;24.83;14.43;;;15.20;99.90;;;;;;5058308;28;20201;-64
2021/09/06 00:05:10;;;;;;;24.73;14.80;;;15.20;99.90;;;;;;5052915;28;20181;-64
2021/09/06 00:07:39;;;;;;;24.40;15.23;;;15.10;99.90;;;;;;5056194;28;20243;-65
2021/09/06 00:10:35;;;;;;;21.70;14.50;;;15.10;99.90;;;;;;5032815;28;20365;-65
2021/09/06 00:13:06;;;;;;;23.33;15.20;;;15.00;99.90;;;;;;5057129;28;20191;-64
2021/09/06 00:15:35;;;;;;;23.53;15.20;;;15.00;99.90;;;;;;5059833;28;20219;-64
2021/09/06 00:18:04;;;;;;;23.63;15.10;;;14.90;99.90;;;;;;5055208;28;20178;-64
2021/09/06 00:20:37;;;;;;;31.77;17.43;;;14.90;99.90;;;;;;5056333;28;20173;-64
2021/09/06 00:23:06;;;;;;;27.77;17.60;;;14.90;99.90;;;;;;5058521;28;20188;-65
2021/09/06 00:25:34;;;;;;;25.87;16.73;;;14.90;99.90;;;;;;5056150;28;20217;-64
2021/09/06 00:28:03;;;;;;;24.77;16.63;;;14.90;99.90;;;;;;5057358;28;20412;-64
2021/09/06 00:30:32;;;;;;;26.07;17.23;;;14.90;99.90;;;;;;5060621;28;20242;-64
2021/09/06 00:33:00;;;;;;;26.93;16.83;;;14.80;99.90;;;;;;5058203;28;20411;-64
2021/09/06 00:35:29;;;;;;;25.17;16.20;;;14.80;99.90;;;;;;5036831;28;20224;-65
2021/09/06 00:37:58;;;;;;;26.83;15.40;;;14.70;99.90;;;;;;5057661;28;20200;-64
2021/09/06 00:40:27;;;;;;;25.50;16.47;;;14.70;99.90;;;;;;5053616;28;20206;-64
2021/09/06 00:42:56;;;;;;;30.77;18.27;;;14.70;99.90;;;;;;5055466;28;20189;-64
2021/09/06 00:45:24;;;;;;;25.43;16.63;;;14.70;99.90;;;;;;5056540;28;20181;-64
2021/09/06 00:47:53;;;;;;;27.37;17.27;;;14.70;99.90;;;;;;5059887;28;20442;-64
2021/09/06 00:50:21;;;;;;;28.13;17.40;;;14.70;99.90;;;;;;5023613;28;20185;-64
2021/09/06 00:52:50;;;;;;;24.80;16.17;;;14.70;99.90;;;;;;5059093;28;20205;-64
2021/09/06 00:55:20;;;;;;;23.63;15.47;;;14.60;99.90;;;;;;5055868;28;20217;-64
2021/09/06 00:57:48;;;;;;;28.57;16.37;;;14.60;99.90;;;;;;5053287;28;20185;-64
2021/09/06 01:00:18;;;;;;;23.17;15.87;;;14.60;99.90;;;;;;5039894;28;20185;-64
2021/09/06 01:02:47;;;;;;;26.13;15.37;;;14.60;99.90;;;;;;5060966;28;20479;-65
2021/09/06 01:05:16;;;;;;;29.47;16.90;;;14.50;99.90;;;;;;5052904;28;20188;-64
2021/09/06 01:07:44;;;;;;;24.40;16.10;;;14.50;99.90;;;;;;5043090;28;20317;-65
2021/09/06 01:10:14;;;;;;;26.77;16.80;;;14.50;99.90;;;;;;5055301;28;20412;-64
2021/09/06 01:12:44;;;;;;;24.27;16.53;;;14.40;99.90;;;;;;5057197;28;20188;-64
2021/09/06 01:15:13;;;;;;;25.40;17.10;;;14.40;99.90;;;;;;5055821;28;20181;-64
2021/09/06 01:17:42;;;;;;;27.53;17.10;;;14.40;99.90;;;;;;5051461;28;20239;-65
2021/09/06 01:20:12;;;;;;;25.93;16.67;;;14.40;99.90;;;;;;5036747;28;20293;-64
2021/09/06 01:22:41;;;;;;;31.07;18.23;;;14.40;99.90;;;;;;5056543;28;20193;-64
2021/09/06 01:25:13;;;;;;;29.90;18.87;;;14.40;99.90;;;;;;5056403;28;20231;-64
2021/09/06 01:27:43;;;;;;;31.73;19.13;;;14.30;99.90;;;;;;5054864;28;20220;-64
2021/09/06 01:30:12;;;;;;;29.00;18.47;;;14.30;99.90;;;;;;5053396;28;20458;-65
2021/09/06 01:32:40;;;;;;;30.67;18.77;;;14.30;99.90;;;;;;5057350;28;20192;-64
2021/09/06 01:35:09;;;;;;;27.20;17.63;;;14.30;99.90;;;;;;5056539;28;20180;-64
2021/09/06 01:37:39;;;;;;;28.10;17.37;;;14.20;99.90;;;;;;5054396;28;20218;-64
2021/09/06 01:40:08;;;;;;;29.57;18.43;;;14.20;99.90;;;;;;5054704;28;20211;-64
2021/09/06 01:42:37;;;;;;;32.40;19.97;;;14.10;99.90;;;;;;5056438;28;20279;-64
2021/09/06 01:45:07;;;;;;;30.40;19.20;;;14.10;99.90;;;;;;5058157;28;20337;-64
2021/09/06 01:47:37;;;;;;;32.37;19.50;;;14.10;99.90;;;;;;5055480;28;20177;-64
2021/09/06 01:50:06;;;;;;;32.77;19.67;;;14.20;99.90;;;;;;5054607;28;20184;-64
2021/09/06 01:52:34;;;;;;;29.23;18.50;;;14.10;99.90;;;;;;5036493;28;20327;-64
2021/09/06 01:55:04;;;;;;;29.63;18.27;;;14.10;99.90;;;;;;5054853;28;20431;-64
2021/09/06 01:57:33;;;;;;;31.33;18.30;;;14.10;99.90;;;;;;5053684;28;20236;-64
2021/09/06 02:00:01;;;;;;;30.07;19.40;;;14.00;99.90;;;;;;5056551;28;20223;-64
2021/09/06 02:02:31;;;;;;;29.37;18.23;;;14.00;99.90;;;;;;5055419;28;20238;-65
2021/09/06 02:05:00;;;;;;;28.50;17.80;;;14.00;99.90;;;;;;5054772;28;20230;-64
2021/09/06 02:07:29;;;;;;;27.93;17.73;;;14.00;99.90;;;;;;5058197;28;20182;-64
2021/09/06 02:09:57;;;;;;;28.30;17.53;;;13.90;99.90;;;;;;5059616;28;20188;-64
2021/09/06 02:12:26;;;;;;;29.30;18.70;;;13.90;99.90;;;;;;5054031;28;20197;-64
2021/09/06 02:15:04;;;;;;;27.27;17.67;;;13.90;99.90;;;;;;5055075;28;20427;-64
2021/09/06 02:17:35;;;;;;;26.30;17.20;;;13.90;99.90;;;;;;5055061;28;20523;-64
2021/09/06 02:20:04;;;;;;;28.13;17.10;;;13.80;99.90;;;;;;5054829;28;20192;-64
2021/09/06 02:22:32;;;;;;;28.57;17.77;;;13.70;99.90;;;;;;5056922;28;20254;-64
2021/09/06 02:25:00;;;;;;;36.83;19.17;;;13.70;99.90;;;;;;5056918;28;20240;-64
2021/09/06 02:27:30;;;;;;;34.83;20.60;;;13.80;99.90;;;;;;5051868;28;20185;-64
2021/09/06 02:29:59;;;;;;;33.80;19.73;;;13.80;99.90;;;;;;5057468;28;20185;-64
2021/09/06 02:32:27;;;;;;;29.70;19.60;;;13.80;99.90;;;;;;5057256;28;20188;-64
2021/09/06 02:34:57;;;;;;;29.37;19.10;;;13.80;99.90;;;;;;5052474;28;20358;-64
2021/09/06 02:37:25;;;;;;;31.33;20.07;;;13.70;99.90;;;;;;5051941;28;20236;-64
2021/09/06 02:39:54;;;;;;;32.73;20.03;;;13.70;99.90;;;;;;5058743;28;20273;-64
2021/09/06 02:42:22;;;;;;;30.63;19.50;;;13.70;99.90;;;;;;5059134;28;20466;-64
2021/09/06 02:44:50;;;;;;;31.17;19.73;;;13.70;99.90;;;;;;5057380;28;20343;-64
2021/09/06 02:47:19;;;;;;;27.63;18.20;;;13.60;99.90;;;;;;5056715;28;20192;-64
2021/09/06 02:49:47;;;;;;;36.03;19.50;;;13.60;99.90;;;;;;5039580;28;20177;-64
2021/09/06 02:52:17;;;;;;;34.50;20.67;;;13.50;99.90;;;;;;5058641;28;20259;-64
2021/09/06 02:54:45;;;;;;;31.10;19.87;;;13.50;99.90;;;;;;5056518;28;20500;-64
2021/09/06 02:57:13;;;;;;;39.20;21.87;;;13.50;99.90;;;;;;5015909;28;20324;-65
2021/09/06 02:59:42;;;;;;;30.87;19.83;;;13.50;99.90;;;;;;5055023;28;20218;-64
2021/09/06 03:02:10;;;;;;;32.83;20.60;;;13.50;99.90;;;;;;5054713;28;20439;-64
2021/09/06 03:04:39;;;;;;;33.70;21.00;;;13.50;99.90;;;;;;5052422;28;20201;-64
2021/09/06 03:07:07;;;;;;;33.17;20.17;;;13.50;99.90;;;;;;5048595;28;20506;-64
2021/09/06 03:09:37;;;;;;;35.20;20.33;;;13.40;99.90;;;;;;5054307;28;20212;-64
2021/09/06 03:12:06;;;;;;;32.30;20.87;;;13.50;99.90;;;;;;5049241;28;20203;-64
2021/09/06 03:14:34;;;;;;;31.27;19.87;;;13.40;99.90;;;;;;5058173;28;20283;-64
2021/09/06 03:17:03;;;;;;;37.13;21.40;;;13.40;99.90;;;;;;5054009;28;20221;-64
2021/09/06 03:19:31;;;;;;;40.73;22.10;;;13.40;99.90;;;;;;5050263;28;20481;-64
2021/09/06 03:21:59;;;;;;;37.13;21.43;;;13.40;99.90;;;;;;5033057;28;20181;-65
2021/09/06 03:24:28;;;;;;;33.30;20.00;;;13.40;99.90;;;;;;5056861;28;20240;-64
2021/09/06 03:26:57;;;;;;;31.87;19.33;;;13.30;99.90;;;;;;5054714;28;20180;-64
2021/09/06 03:29:26;;;;;;;32.77;19.87;;;13.30;99.90;;;;;;5054258;28;20439;-64
2021/09/06 03:31:54;;;;;;;32.40;20.13;;;13.20;99.90;;;;;;5035220;28;20196;-64
2021/09/06 03:34:22;;;;;;;33.27;20.33;;;13.20;99.90;;;;;;5037054;28;20189;-64
2021/09/06 03:36:51;;;;;;;31.83;20.70;;;13.20;99.90;;;;;;5056044;28;20231;-64
2021/09/06 03:39:19;;;;;;;32.33;18.87;;;13.20;99.90;;;;;;5055786;28;20691;-64
2021/09/06 03:41:48;;;;;;;35.20;20.23;;;13.20;99.90;;;;;;5057337;28;20188;-64
2021/09/06 03:44:19;;;;;;;37.70;21.47;;;13.20;99.90;;;;;;5053469;28;20208;-64
2021/09/06 03:46:47;;;;;;;42.03;22.03;;;13.20;99.90;;;;;;5052758;28;20197;-64
2021/09/06 03:49:15;;;;;;;32.47;19.70;;;13.20;99.90;;;;;;5034143;28;20181;-64
2021/09/06 03:51:44;;;;;;;31.43;19.37;;;13.10;99.90;;;;;;5050389;28;20210;-64
2021/09/06 03:54:12;;;;;;;32.73;19.77;;;13.10;99.90;;;;;;5058065;28;20466;-64
2021/09/06 03:56:40;;;;;;;32.03;19.40;;;13.10;99.90;;;;;;5050263;28;20191;-64
2021/09/06 03:59:08;;;;;;;30.57;18.57;;;13.10;99.90;;;;;;5053570;28;20185;-64
2021/09/06 04:01:38;;;;;;;35.13;19.50;;;13.10;99.90;;;;;;5049946;28;20177;-64
2021/09/06 04:04:07;;;;;;;34.80;19.80;;;13.00;99.90;;;;;;5038376;28;20188;-64
2021/09/06 04:06:35;;;;;;;27.77;17.63;;;13.00;99.90;;;;;;5056482;28;20188;-64
2021/09/06 04:09:03;;;;;;;28.80;18.83;;;13.00;99.90;;;;;;5053066;28;20193;-64
2021/09/06 04:11:32;;;;;;;34.97;19.60;;;13.00;99.90;;;;;;5050809;28;20435;-64
2021/09/06 04:14:00;;;;;;;35.07;21.57;;;13.00;99.90;;;;;;5050109;28;20447;-64
2021/09/06 04:16:29;;;;;;;34.10;20.80;;;12.90;99.90;;;;;;5054457;28;20300;-64
2021/09/06 04:18:59;;;;;;;33.17;20.77;;;12.90;99.90;;;;;;5051088;28;20247;-64
2021/09/06 04:21:27;;;;;;;31.53;19.00;;;12.90;99.90;;;;;;5051892;28;21318;-64
2021/09/06 04:23:56;;;;;;;33.27;19.70;;;12.80;99.90;;;;;;5031038;28;20439;-64
2021/09/06 04:26:25;;;;;;;32.77;18.77;;;12.80;99.90;;;;;;5031407;28;20216;-64
2021/09/06 04:28:54;;;;;;;27.40;18.33;;;12.70;99.90;;;;;;5047416;28;20232;-64
2021/09/06 04:31:22;;;;;;;33.17;19.47;;;12.70;99.90;;;;;;5052513;28;20201;-64
2021/09/06 04:33:52;;;;;;;30.57;19.83;;;12.70;99.90;;;;;;5049135;28;20672;-64
2021/09/06 04:36:22;;;;;;;37.80;20.67;;;12.70;99.90;;;;;;5035252;28;20181;-64
2021/09/06 04:38:51;;;;;;;30.77;19.37;;;12.70;99.90;;;;;;5049727;28;20205;-64
2021/09/06 04:41:21;;;;;;;29.50;18.37;;;12.70;99.90;;;;;;5030741;28;20186;-64
2021/09/06 04:43:49;;;;;;;27.97;18.10;;;12.70;99.90;;;;;;5037324;28;20189;-64
2021/09/06 04:46:23;;;;;;;35.03;19.27;;;12.70;99.90;;;;;;5031653;28;20181;-64
2021/09/06 04:48:52;;;;;;;32.37;18.50;;;12.60;99.90;;;;;;5022267;28;20243;-64
2021/09/06 04:51:27;;;;;;;31.37;19.17;;;12.60;99.90;;;;;;5051422;28;20205;-64
2021/09/06 04:53:56;;;;;;;37.40;20.97;;;12.60;99.90;;;;;;5052188;28;20208;-64
2021/09/06 04:56:24;;;;;;;37.83;21.57;;;12.60;99.90;;;;;;5054306;28;20420;-64
2021/09/06 04:58:52;;;;;;;40.00;20.90;;;12.60;99.90;;;;;;5034564;28;20215;-64
2021/09/06 05:01:21;;;;;;;36.83;20.33;;;12.70;99.90;;;;;;5055571;28;20201;-64
2021/09/06 05:03:54;;;;;;;35.43;19.73;;;12.70;99.90;;;;;;5056605;28;20209;-64
2021/09/06 05:06:22;;;;;;;33.87;19.27;;;12.70;99.90;;;;;;5058267;28;20184;-64
2021/09/06 05:08:52;;;;;;;37.97;19.73;;;12.60;99.90;;;;;;5055632;28;20210;-64
2021/09/06 05:11:21;;;;;;;35.20;20.27;;;12.60;99.90;;;;;;5055705;28;20180;-65
2021/09/06 05:13:52;;;;;;;35.83;21.33;;;12.60;99.90;;;;;;5036540;28;20181;-64
2021/09/06 05:16:21;;;;;;;42.10;21.73;;;12.60;99.90;;;;;;5055033;28;20438;-64
2021/09/06 05:18:50;;;;;;;40.07;22.27;;;12.60;99.90;;;;;;5057037;28;20512;-65
2021/09/06 05:21:18;;;;;;;42.43;24.07;;;12.60;99.90;;;;;;5038216;28;20184;-64
2021/09/06 05:23:49;;;;;;;44.70;24.70;;;12.60;99.90;;;;;;5056609;28;20248;-65
2021/09/06 05:26:19;;;;;;;40.00;22.13;;;12.60;99.90;;;;;;5055287;28;20236;-64
2021/09/06 05:28:47;;;;;;;37.87;22.07;;;12.60;99.90;;;;;;5052685;28;20381;-64
2021/09/06 05:31:16;;;;;;;41.80;21.17;;;12.60;99.90;;;;;;5049497;28;20192;-64
2021/09/06 05:33:44;;;;;;;37.43;21.17;;;12.60;99.90;;;;;;5035486;28;20267;-64
2021/09/06 05:36:15;;;;;;;42.97;23.07;;;12.60;99.90;;;;;;5055142;28;20385;-64
2021/09/06 05:38:44;;;;;;;43.40;24.03;;;12.60;99.90;;;;;;5037263;28;20218;-63
2021/09/06 05:41:15;;;;;;;38.40;22.67;;;12.60;99.90;;;;;;5058178;28;20422;-64
2021/09/06 05:43:46;;;;;;;42.30;22.67;;;12.70;99.90;;;;;;5060326;28;20208;-64
2021/09/06 05:46:15;;;;;;;37.93;22.53;;;12.70;99.90;;;;;;5038285;28;20181;-63
2021/09/06 05:48:43;;;;;;;38.10;21.30;;;12.70;99.90;;;;;;5056586;28;20180;-64
2021/09/06 05:51:13;;;;;;;40.37;22.97;;;12.80;99.90;;;;;;5051991;28;20186;-64
2021/09/06 05:53:41;;;;;;;43.20;22.23;;;12.80;99.90;;;;;;5056153;28;20355;-64
2021/09/06 05:56:09;;;;;;;50.20;23.57;;;12.80;99.90;;;;;;5058917;28;20181;-64
2021/09/06 05:58:38;;;;;;;56.53;26.27;;;12.90;99.90;;;;;;5040747;28;20204;-64
2021/09/06 06:01:08;;;;;;;53.17;25.90;;;13.00;99.90;;;;;;5041008;28;20259;-64
2021/09/06 06:03:37;;;;;;;51.80;23.77;;;13.10;99.90;;;;;;5057481;28;20192;-64
2021/09/06 06:06:08;;;;;;;44.77;23.33;;;13.10;99.90;;;;;;5059834;28;20222;-64
2021/09/06 06:08:36;;;;;;;42.33;22.83;;;13.10;99.90;;;;;;5041394;28;20236;-64
2021/09/06 06:11:04;;;;;;;50.03;25.80;;;13.20;99.90;;;;;;5055121;28;20355;-64
2021/09/06 06:13:33;;;;;;;53.80;26.60;;;13.30;99.90;;;;;;5062320;28;20231;-64
2021/09/06 06:16:01;;;;;;;57.53;28.63;;;13.30;99.90;;;;;;5039617;28;20205;-64
2021/09/06 06:18:34;;;;;;;54.20;27.00;;;13.50;99.90;;;;;;5046033;28;20251;-65
2021/09/06 06:21:03;;;;;;;50.47;25.87;;;13.60;99.90;;;;;;5055064;28;20709;-64
2021/09/06 06:23:31;;;;;;;54.37;26.90;;;13.70;99.90;;;;;;5053834;28;20180;-64
2021/09/06 06:26:00;;;;;;;59.90;30.67;;;13.80;99.90;;;;;;5041374;28;20209;-64
2021/09/06 06:28:28;;;;;;;63.27;32.50;;;13.90;99.90;;;;;;5051775;28;20443;-64
2021/09/06 06:30:59;;;;;;;67.23;35.20;;;14.10;99.90;;;;;;5061513;28;20184;-64
2021/09/06 06:33:29;;;;;;;61.97;32.07;;;14.30;99.90;;;;;;5061722;28;20216;-64
2021/09/06 06:36:01;;;;;;;66.93;33.93;;;14.50;99.90;;;;;;5060847;28;20185;-64
2021/09/06 06:38:30;;;;;;;62.93;32.53;;;14.60;99.90;;;;;;5058117;28;20213;-64
2021/09/06 06:40:58;;;;;;;65.17;33.17;;;14.80;99.90;;;;;;5053711;28;20228;-64
2021/09/06 06:43:28;;;;;;;64.23;33.83;;;14.90;99.90;;;;;;5057365;28;20193;-64
2021/09/06 06:45:56;;;;;;;59.07;32.87;;;15.00;99.90;;;;;;5056503;28;20367;-64
2021/09/06 06:48:25;;;;;;;61.17;31.93;;;15.10;99.90;;;;;;5056166;28;20197;-64
2021/09/06 06:51:03;;;;;;;67.77;33.93;;;15.20;99.90;;;;;;5037554;28;20184;-65
2021/09/06 06:53:31;;;;;;;59.80;31.93;;;15.40;99.90;;;;;;5060796;28;20185;-64
2021/09/06 06:55:59;;;;;;;65.70;33.00;;;15.40;99.90;;;;;;5061366;28;20204;-64
2021/09/06 06:58:29;;;;;;;56.00;29.43;;;15.50;99.90;;;;;;5050383;28;20416;-64
2021/09/06 07:00:58;;;;;;;60.17;31.10;;;15.60;99.90;;;;;;5058786;28;20181;-65
2021/09/06 07:03:26;;;;;;;67.33;32.27;;;15.70;99.90;;;;;;5057727;28;20190;-64
2021/09/06 07:05:55;;;;;;;64.67;32.53;;;16.00;99.90;;;;;;5056340;28;20200;-64
2021/09/06 07:08:25;;;;;;;57.13;30.90;;;16.10;99.90;;;;;;5052765;28;20196;-64
2021/09/06 07:10:53;;;;;;;59.83;30.83;;;16.20;99.90;;;;;;5053947;28;20181;-64
2021/09/06 07:13:21;;;;;;;51.47;29.07;;;16.40;99.90;;;;;;5060016;28;20378;-65
2021/09/06 07:15:50;;;;;;;59.87;31.30;;;16.60;99.90;;;;;;5053981;28;20201;-64
2021/09/06 07:18:18;;;;;;;57.93;30.07;;;16.80;99.90;;;;;;5057573;28;20186;-64
2021/09/06 07:20:47;;;;;;;59.57;30.37;;;17.00;99.90;;;;;;5051822;28;20352;-64
2021/09/06 07:23:15;;;;;;;64.23;29.80;;;17.10;99.90;;;;;;5049751;28;20399;-65
2021/09/06 07:25:45;;;;;;;56.17;29.83;;;17.30;99.90;;;;;;5055188;28;20284;-64
2021/09/06 07:28:13;;;;;;;54.03;28.43;;;17.50;99.90;;;;;;5058481;28;20196;-65
2021/09/06 07:30:42;;;;;;;56.27;28.80;;;17.70;99.90;;;;;;5061049;28;20201;-64
2021/09/06 07:33:10;;;;;;;50.47;27.27;;;17.80;99.90;;;;;;5059451;28;20188;-64
2021/09/06 07:35:38;;;;;;;52.37;28.00;;;17.80;99.90;;;;;;5053344;28;20418;-65
2021/09/06 07:38:07;;;;;;;52.10;29.30;;;18.00;99.90;;;;;;5060650;28;20212;-64
2021/09/06 07:40:35;;;;;;;49.73;29.23;;;18.30;99.90;;;;;;5052221;28;20232;-65
2021/09/06 07:43:05;;;;;;;47.73;28.10;;;18.40;99.90;;;;;;5053005;28;20185;-65
2021/09/06 07:45:35;;;;;;;48.10;28.53;;;18.50;99.90;;;;;;5036194;28;20218;-64
2021/09/06 07:48:03;;;;;;;49.10;28.17;;;18.60;99.90;;;;;;5055079;28;20181;-64
2021/09/06 07:50:32;;;;;;;48.10;27.80;;;18.60;99.90;;;;;;5061097;28;20187;-65
2021/09/06 07:53:01;;;;;;;49.60;29.27;;;18.70;99.90;;;;;;5055078;28;20430;-65
2021/09/06 07:55:29;;;;;;;54.03;29.17;;;18.80;99.90;;;;;;5050292;28;20346;-65
2021/09/06 07:57:57;;;;;;;52.07;28.63;;;18.80;99.90;;;;;;5036568;28;20312;-64
2021/09/06 08:00:27;;;;;;;48.10;27.37;;;19.00;99.90;;;;;;5058369;28;20254;-65
2021/09/06 08:02:56;;;;;;;44.33;27.47;;;19.20;99.90;;;;;;5052860;28;20192;-64
2021/09/06 08:05:28;;;;;;;47.13;26.87;;;19.40;99.90;;;;;;5054014;28;20438;-64
2021/09/06 08:07:57;;;;;;;47.73;26.80;;;19.50;99.90;;;;;;5034586;28;20422;-65
2021/09/06 08:10:26;;;;;;;47.23;26.00;;;19.60;99.90;;;;;;5057018;28;20457;-65
2021/09/06 08:12:54;;;;;;;49.47;26.90;;;19.70;99.90;;;;;;5056245;28;20182;-64
2021/09/06 08:15:24;;;;;;;43.97;25.93;;;19.80;99.90;;;;;;5053548;28;20181;-65
2021/09/06 08:17:53;;;;;;;45.43;25.60;;;20.00;99.90;;;;;;5057595;28;20181;-64
2021/09/06 08:20:23;;;;;;;50.03;25.37;;;20.10;99.90;;;;;;5060010;28;20205;-64
2021/09/06 08:22:52;;;;;;;45.33;26.20;;;20.10;99.90;;;;;;5055354;28;20200;-64
2021/09/06 08:25:20;;;;;;;40.57;24.47;;;20.40;99.90;;;;;;5049321;28;20205;-64
2021/09/06 08:27:48;;;;;;;45.33;27.03;;;20.60;99.90;;;;;;5060790;28;20430;-65
2021/09/06 08:30:18;;;;;;;40.23;25.00;;;20.70;99.90;;;;;;5047900;28;20205;-65
2021/09/06 08:32:46;;;;;;;43.70;26.67;;;20.70;99.90;;;;;;5058875;28;20208;-65
2021/09/06 08:35:16;;;;;;;46.13;27.20;;;20.80;99.90;;;;;;5055239;28;20211;-65
2021/09/06 08:37:44;;;;;;;46.10;26.60;;;20.90;99.90;;;;;;5064385;28;20196;-65
2021/09/06 08:40:14;;;;;;;46.50;27.33;;;20.90;99.90;;;;;;5041592;28;20239;-65
2021/09/06 08:42:42;;;;;;;43.47;25.80;;;21.00;99.90;;;;;;5063181;28;20331;-65
2021/09/06 08:45:12;;;;;;;41.47;24.03;;;21.10;99.90;;;;;;5058986;28;20354;-65
2021/09/06 08:47:42;;;;;;;52.57;25.63;;;21.20;99.90;;;;;;5058574;28;20183;-65
2021/09/06 08:50:12;;;;;;;38.17;23.37;;;21.30;99.90;;;;;;5040828;28;20180;-65
2021/09/06 08:52:43;;;;;;;38.53;23.10;;;21.50;99.90;;;;;;5064060;28;20188;-65
2021/09/06 08:55:12;;;;;;;47.60;26.37;;;21.80;99.90;;;;;;5059183;28;20192;-64
2021/09/06 08:57:40;;;;;;;42.70;26.27;;;22.00;99.90;;;;;;5058685;28;20188;-65
2021/09/06 09:00:11;;;;;;;45.10;25.33;;;22.30;99.90;;;;;;5044671;28;20450;-65
2021/09/06 09:02:41;;;;;;;47.07;25.00;;;22.40;99.90;;;;;;5052312;28;20183;-65
2021/09/06 09:05:14;;;;;;;39.73;23.17;;;22.50;99.90;;;;;;5056456;28;20185;-65
2021/09/06 09:07:45;;;;;;;39.93;24.40;;;22.60;99.90;;;;;;5045582;28;20544;-64
2021/09/06 09:10:25;;;;;;;42.97;24.97;;;22.70;99.90;;;;;;5049847;28;20190;-65
2021/09/06 09:13:04;;;;;;;41.77;24.60;;;22.80;99.90;;;;;;5041768;28;20221;-65
2021/09/06 09:15:32;;;;;;;37.30;22.13;;;23.00;99.90;;;;;;5057071;28;20198;-64
2021/09/06 09:18:01;;;;;;;38.53;23.63;;;23.20;99.90;;;;;;5056103;28;21684;-65
2021/09/06 09:20:39;;;;;;;33.67;21.10;;;23.50;99.90;;;;;;5053948;28;20211;-65
2021/09/06 09:23:10;;;;;;;33.90;22.60;;;23.50;99.90;;;;;;5059518;28;20224;-65
2021/09/06 09:25:41;;;;;;;34.90;21.47;;;23.60;99.90;;;;;;5060705;28;20228;-65
2021/09/06 09:28:10;;;;;;;33.87;21.27;;;23.70;99.90;;;;;;5054204;28;20431;-65
2021/09/06 09:30:41;;;;;;;31.73;21.23;;;23.70;99.90;;;;;;5061061;28;20775;-65
2021/09/06 09:33:11;;;;;;;30.50;20.20;;;23.80;99.90;;;;;;5059329;28;20181;-64
2021/09/06 09:35:40;;;;;;;29.43;19.60;;;24.00;99.90;;;;;;5059655;28;20209;-65
2021/09/06 09:38:13;;;;;;;38.23;23.23;;;24.10;99.90;;;;;;5055523;28;20197;-65
2021/09/06 09:40:43;;;;;;;30.10;21.00;;;24.10;99.90;;;;;;5057177;28;20272;-65
2021/09/06 09:43:12;;;;;;;29.10;19.60;;;24.10;99.90;;;;;;5055358;28;20190;-65
2021/09/06 09:45:40;;;;;;;28.27;18.83;;;24.20;99.90;;;;;;5058140;28;20203;-65
2021/09/06 09:48:10;;;;;;;24.47;16.97;;;24.40;99.90;;;;;;5060871;28;20188;-65
2021/09/06 09:50:38;;;;;;;29.33;17.93;;;24.50;99.90;;;;;;5056878;28;20213;-65
2021/09/06 09:53:07;;;;;;;28.50;17.63;;;24.60;99.90;;;;;;5056450;28;20180;-65
2021/09/06 09:55:37;;;;;;;25.07;17.13;;;24.70;99.90;;;;;;5053010;28;20208;-65
2021/09/06 09:58:05;;;;;;;27.37;17.57;;;24.80;99.90;;;;;;5057981;28;20188;-65
2021/09/06 10:00:33;;;;;;;28.23;18.17;;;24.80;99.90;;;;;;5039178;28;20270;-65
2021/09/06 10:03:05;;;;;;;31.43;17.93;;;24.80;99.90;;;;;;5041495;28;20261;-65
2021/09/06 10:05:37;;;;;;;27.80;18.07;;;24.90;99.90;;;;;;5055577;28;20193;-65
2021/09/06 10:08:10;;;;;;;27.87;17.43;;;24.90;99.90;;;;;;5040331;28;20326;-65
2021/09/06 10:10:41;;;;;;;25.17;17.43;;;25.00;99.90;;;;;;5040244;28;20192;-65
2021/09/06 10:13:12;;;;;;;24.73;17.00;;;25.20;99.90;;;;;;5060346;28;20374;-65
2021/09/06 10:15:43;;;;;;;26.70;18.03;;;25.40;99.90;;;;;;5056557;28;20228;-66
2021/09/06 10:18:16;;;;;;;28.40;17.13;;;25.40;99.90;;;;;;5056833;28;20185;-65
2021/09/06 10:20:45;;;;;;;28.93;18.13;;;25.40;99.90;;;;;;5055361;28;20455;-65
2021/09/06 10:23:14;;;;;;;25.33;17.03;;;25.30;99.90;;;;;;5059388;28;20196;-65
2021/09/06 10:25:45;;;;;;;26.53;17.20;;;25.40;99.90;;;;;;5053162;28;20250;-65
2021/09/06 10:28:16;;;;;;;29.67;18.53;;;25.40;99.90;;;;;;5056172;28;20458;-65
2021/09/06 10:30:46;;;;;;;26.53;18.83;;;25.60;99.90;;;;;;5053302;28;20728;-65
2021/09/06 10:33:26;;;;;;;24.47;17.00;;;25.80;99.90;;;;;;5041491;28;20185;-65
2021/09/06 10:36:07;;;;;;;25.17;16.87;;;25.80;99.90;;;;;;5061318;28;20423;-65
2021/09/06 10:38:40;;;;;;;25.57;17.80;;;25.80;99.90;;;;;;5054664;28;20355;-66
2021/09/06 10:41:14;;;;;;;27.43;16.77;;;25.90;99.90;;;;;;5050519;28;20232;-65
2021/09/06 10:43:49;;;;;;;22.47;16.60;;;26.10;99.90;;;;;;5054967;28;20181;-65
2021/09/06 10:46:19;;;;;;;27.80;17.37;;;26.20;99.90;;;;;;5052998;28;20193;-65
2021/09/06 10:48:47;;;;;;;24.43;16.60;;;26.10;99.90;;;;;;5054267;28;20177;-65
2021/09/06 10:51:23;;;;;;;22.93;16.67;;;26.00;99.90;;;;;;5052717;28;20363;-65
2021/09/06 10:53:55;;;;;;;25.45;17.15;;;26.20;99.90;;;;;;5057456;28;20185;-65
2021/09/06 10:56:27;;;;;;;24.40;16.13;;;26.40;99.90;;;;;;5053582;28;20177;-65
2021/09/06 10:58:56;;;;;;;21.70;15.53;;;26.50;99.90;;;;;;5057435;28;20193;-66
2021/09/06 11:01:25;;;;;;;21.52;14.77;;;26.60;99.90;;;;;;5056145;28;20263;-65
2021/09/06 11:03:54;;;;;;;20.47;14.10;;;26.70;99.90;;;;;;5054086;28;20204;-65
2021/09/06 11:06:26;;;;;;;23.03;16.03;;;26.80;99.90;;;;;;5057961;28;20177;-65
2021/09/06 11:08:55;;;;;;;22.37;15.20;;;26.90;99.90;;;;;;5053014;28;20184;-65
2021/09/06 11:11:29;;;;;;;22.50;14.10;;;27.00;99.90;;;;;;5054963;28;20188;-65
2021/09/06 11:13:58;;;;;;;18.57;14.00;;;26.90;99.90;;;;;;5037818;28;20189;-64
2021/09/06 11:16:36;;;;;;;15.10;12.07;;;26.80;99.90;;;;;;5055638;28;20208;-65
2021/09/06 11:19:12;;;;;;;17.13;13.10;;;26.90;99.90;;;;;;5057263;28;20566;-65
2021/09/06 11:21:40;;;;;;;17.83;12.47;;;26.90;99.90;;;;;;5053306;28;20209;-65
2021/09/06 11:24:09;;;;;;;16.13;12.20;;;26.90;99.90;;;;;;5050012;28;20208;-65
2021/09/06 11:26:42;;;;;;;18.20;12.50;;;27.00;99.90;;;;;;5055901;28;20403;-65
2021/09/06 11:29:11;;;;;;;15.70;11.97;;;27.10;99.90;;;;;;5040745;28;20454;-65
2021/09/06 11:31:39;;;;;;;19.27;12.97;;;27.20;99.90;;;;;;5051629;28;20353;-65
2021/09/06 11:34:09;;;;;;;19.13;12.43;;;27.20;99.90;;;;;;5055573;28;20185;-65
2021/09/06 11:36:38;;;;;;;16.87;12.63;;;27.10;99.90;;;;;;5052031;28;20178;-65
2021/09/06 11:39:09;;;;;;;17.67;12.80;;;27.10;99.90;;;;;;5052007;28;20186;-65
2021/09/06 11:41:40;;;;;;;18.37;12.50;;;27.20;99.90;;;;;;5056476;28;20282;-65
2021/09/06 11:44:09;;;;;;;14.75;11.60;;;27.20;99.90;;;;;;5057506;28;20359;-65
2021/09/06 11:46:41;;;;;;;12.63;11.00;;;27.50;99.90;;;;;;5056286;28;20188;-65
2021/09/06 11:49:11;;;;;;;12.77;11.05;;;27.80;99.90;;;;;;5053210;28;20392;-65
2021/09/06 11:51:39;;;;;;;15.20;10.88;;;27.90;99.90;;;;;;5056933;28;20196;-65
2021/09/06 11:54:14;;;;;;;18.23;12.13;;;27.90;99.90;;;;;;5056857;28;20204;-65
2021/09/06 11:56:43;;;;;;;15.50;11.13;;;27.90;99.90;;;;;;5058275;28;20180;-65
2021/09/06 11:59:12;;;;;;;16.13;10.95;;;27.80;99.90;;;;;;5036066;28;21227;-65
2021/09/06 12:01:40;;;;;;;15.68;10.18;;;27.90;99.90;;;;;;5056211;28;20592;-65
2021/09/06 12:04:10;;;;;;;13.25;11.13;;;28.00;99.90;;;;;;5056312;28;20206;-65
2021/09/06 12:06:40;;;;;;;13.10;11.13;;;28.10;99.90;;;;;;5056488;28;20198;-65
2021/09/06 12:09:11;;;;;;;13.43;11.10;;;28.10;99.90;;;;;;5056772;28;20185;-65
2021/09/06 12:11:55;;;;;;;16.38;11.85;;;28.00;99.90;;;;;;5062220;28;20185;-65
2021/09/06 12:14:24;;;;;;;11.80;9.93;;;27.90;99.90;;;;;;5060125;28;20189;-65
2021/09/06 12:16:59;;;;;;;13.77;10.55;;;28.00;99.90;;;;;;5056165;28;20384;-65
2021/09/06 12:19:28;;;;;;;16.38;13.07;;;28.10;99.90;;;;;;5056560;28;20208;-65
2021/09/06 12:21:57;;;;;;;13.57;11.10;;;28.30;99.90;;;;;;5059058;28;20209;-65
2021/09/06 12:24:27;;;;;;;20.13;12.57;;;28.20;99.90;;;;;;5059981;28;20486;-66
2021/09/06 12:26:57;;;;;;;18.08;12.02;;;28.20;99.90;;;;;;5041161;28;20170;-65
2021/09/06 12:29:27;;;;;;;16.02;11.27;;;28.20;99.90;;;;;;5058169;28;20182;-64
2021/09/06 12:31:55;;;;;;;17.35;12.13;;;28.10;99.90;;;;;;5061453;28;20253;-65
2021/09/06 12:34:24;;;;;;;17.38;12.77;;;28.10;99.90;;;;;;5061725;28;20265;-65
2021/09/06 12:36:58;;;;;;;21.30;13.80;;;28.10;99.90;;;;;;5055514;28;20175;-64
2021/09/06 12:39:28;;;;;;;15.55;12.10;;;28.20;99.90;;;;;;5059812;28;20259;-65